sensor_id;sensor_type;location;lat;lon;timestamp;P1;durP1;ratioP1;P2;durP2;ratioP2
64854;SDS011;51321;50.428;8.378;2022-08-19T00:00:57;12.32;;;11.02;;
64854;SDS011;51321;50.428;8.378;2022-08-19T00:03:19;11.80;;;10.60;;
64854;SDS011;51321;50.428;8.378;2022-08-19T00:05:41;12.63;;;11.43;;
64854;SDS011;51321;50.428;8.378;2022-08-19T00:08:03;13.35;;;10.50;;
64854;SDS011;51321;50.428;8.378;2022-08-19T00:10:25;12.18;;;10.30;;
64854;SDS011;51321;50.428;8.378;2022-08-19T00:12:47;12.38;;;11.15;;
64854;SDS011;51321;50.428;8.378;2022-08-19T00:15:15;11.93;;;10.73;;
64854;SDS011;51321;50.428;8.378;2022-08-19T00:17:40;15.93;;;13.18;;
64854;SDS011;51321;50.428;8.378;2022-08-19T00:20:03;14.88;;;13.25;;
64854;SDS011;51321;50.428;8.378;2022-08-19T00:22:25;16.42;;;12.93;;
64854;SDS011;51321;50.428;8.378;2022-08-19T00:24:48;14.35;;;12.95;;
64854;SDS011;51321;50.428;8.378;2022-08-19T00:27:10;14.25;;;12.77;;
64854;SDS011;51321;50.428;8.378;2022-08-19T00:29:32;15.38;;;13.05;;
64854;SDS011;51321;50.428;8.378;2022-08-19T00:31:56;13.38;;;11.98;;
64854;SDS011;51321;50.428;8.378;2022-08-19T00:34:20;13.82;;;12.43;;
64854;SDS011;51321;50.428;8.378;2022-08-19T00:36:42;13.95;;;12.45;;
64854;SDS011;51321;50.428;8.378;2022-08-19T00:39:04;14.00;;;12.60;;
64854;SDS011;51321;50.428;8.378;2022-08-19T00:41:27;12.48;;;11.27;;
64854;SDS011;51321;50.428;8.378;2022-08-19T00:44:03;12.88;;;11.75;;
64854;SDS011;51321;50.428;8.378;2022-08-19T00:46:26;14.25;;;11.90;;
64854;SDS011;51321;50.428;8.378;2022-08-19T00:48:50;13.52;;;12.15;;
64854;SDS011;51321;50.428;8.378;2022-08-19T00:51:12;13.13;;;11.82;;
64854;SDS011;51321;50.428;8.378;2022-08-19T00:53:36;15.10;;;13.68;;
64854;SDS011;51321;50.428;8.378;2022-08-19T00:55:59;14.02;;;12.50;;
64854;SDS011;51321;50.428;8.378;2022-08-19T00:58:27;13.90;;;12.50;;
64854;SDS011;51321;50.428;8.378;2022-08-19T01:00:51;14.45;;;12.63;;
64854;SDS011;51321;50.428;8.378;2022-08-19T01:03:14;15.60;;;13.70;;
64854;SDS011;51321;50.428;8.378;2022-08-19T01:05:39;14.43;;;13.05;;
64854;SDS011;51321;50.428;8.378;2022-08-19T01:08:03;14.90;;;13.35;;
64854;SDS011;51321;50.428;8.378;2022-08-19T01:10:29;14.55;;;13.05;;
64854;SDS011;51321;50.428;8.378;2022-08-19T01:12:52;14.98;;;13.48;;
64854;SDS011;51321;50.428;8.378;2022-08-19T01:15:18;14.88;;;13.38;;
64854;SDS011;51321;50.428;8.378;2022-08-19T01:17:43;16.17;;;13.13;;
64854;SDS011;51321;50.428;8.378;2022-08-19T01:20:09;14.00;;;12.57;;
64854;SDS011;51321;50.428;8.378;2022-08-19T01:22:34;15.95;;;12.60;;
64854;SDS011;51321;50.428;8.378;2022-08-19T01:25:03;13.52;;;12.15;;
64854;SDS011;51321;50.428;8.378;2022-08-19T01:27:25;13.98;;;12.65;;
64854;SDS011;51321;50.428;8.378;2022-08-19T01:29:47;12.88;;;11.68;;
64854;SDS011;51321;50.428;8.378;2022-08-19T01:32:12;13.07;;;11.73;;
64854;SDS011;51321;50.428;8.378;2022-08-19T01:34:42;13.70;;;12.30;;
64854;SDS011;51321;50.428;8.378;2022-08-19T01:37:07;13.98;;;12.48;;
64854;SDS011;51321;50.428;8.378;2022-08-19T01:39:39;13.80;;;12.40;;
64854;SDS011;51321;50.428;8.378;2022-08-19T01:42:02;13.75;;;12.52;;
64854;SDS011;51321;50.428;8.378;2022-08-19T01:44:25;14.07;;;12.68;;
64854;SDS011;51321;50.428;8.378;2022-08-19T01:46:47;13.50;;;12.20;;
64854;SDS011;51321;50.428;8.378;2022-08-19T01:49:09;14.73;;;13.32;;
64854;SDS011;51321;50.428;8.378;2022-08-19T01:51:32;14.60;;;13.07;;
64854;SDS011;51321;50.428;8.378;2022-08-19T01:53:53;17.20;;;13.60;;
64854;SDS011;51321;50.428;8.378;2022-08-19T01:56:17;15.80;;;14.20;;
64854;SDS011;51321;50.428;8.378;2022-08-19T01:58:40;14.98;;;13.52;;
64854;SDS011;51321;50.428;8.378;2022-08-19T02:01:06;14.50;;;13.10;;
64854;SDS011;51321;50.428;8.378;2022-08-19T02:03:29;14.82;;;13.30;;
64854;SDS011;51321;50.428;8.378;2022-08-19T02:05:53;15.82;;;14.15;;
64854;SDS011;51321;50.428;8.378;2022-08-19T02:08:16;16.60;;;14.85;;
64854;SDS011;51321;50.428;8.378;2022-08-19T02:10:39;17.40;;;15.70;;
64854;SDS011;51321;50.428;8.378;2022-08-19T02:13:03;16.65;;;14.70;;
64854;SDS011;51321;50.428;8.378;2022-08-19T02:15:25;15.15;;;13.65;;
64854;SDS011;51321;50.428;8.378;2022-08-19T02:17:47;15.48;;;13.88;;
64854;SDS011;51321;50.428;8.378;2022-08-19T02:20:10;15.40;;;13.63;;
64854;SDS011;51321;50.428;8.378;2022-08-19T02:22:33;14.13;;;12.50;;
64854;SDS011;51321;50.428;8.378;2022-08-19T02:24:55;14.68;;;13.25;;
64854;SDS011;51321;50.428;8.378;2022-08-19T02:27:17;15.45;;;13.52;;
64854;SDS011;51321;50.428;8.378;2022-08-19T02:29:41;15.30;;;13.73;;
64854;SDS011;51321;50.428;8.378;2022-08-19T02:32:03;16.75;;;13.68;;
64854;SDS011;51321;50.428;8.378;2022-08-19T02:34:25;15.70;;;14.10;;
64854;SDS011;51321;50.428;8.378;2022-08-19T02:36:47;15.60;;;14.10;;
64854;SDS011;51321;50.428;8.378;2022-08-19T02:39:09;15.77;;;14.13;;
64854;SDS011;51321;50.428;8.378;2022-08-19T02:41:31;16.88;;;12.93;;
64854;SDS011;51321;50.428;8.378;2022-08-19T02:43:54;14.85;;;13.48;;
64854;SDS011;51321;50.428;8.378;2022-08-19T02:46:18;14.77;;;13.48;;
64854;SDS011;51321;50.428;8.378;2022-08-19T02:48:42;16.17;;;13.43;;
64854;SDS011;51321;50.428;8.378;2022-08-19T02:51:04;15.90;;;14.13;;
64854;SDS011;51321;50.428;8.378;2022-08-19T02:53:27;14.15;;;12.65;;
64854;SDS011;51321;50.428;8.378;2022-08-19T02:55:49;16.05;;;13.25;;
64854;SDS011;51321;50.428;8.378;2022-08-19T02:58:12;13.80;;;12.40;;
64854;SDS011;51321;50.428;8.378;2022-08-19T03:00:35;15.43;;;12.50;;
64854;SDS011;51321;50.428;8.378;2022-08-19T03:02:58;14.35;;;12.95;;
64854;SDS011;51321;50.428;8.378;2022-08-19T03:05:20;14.77;;;13.27;;
64854;SDS011;51321;50.428;8.378;2022-08-19T03:07:42;13.68;;;12.32;;
64854;SDS011;51321;50.428;8.378;2022-08-19T03:10:04;14.32;;;12.93;;
64854;SDS011;51321;50.428;8.378;2022-08-19T03:12:27;15.18;;;13.63;;
64854;SDS011;51321;50.428;8.378;2022-08-19T03:14:49;15.52;;;13.93;;
64854;SDS011;51321;50.428;8.378;2022-08-19T03:17:12;17.98;;;14.00;;
64854;SDS011;51321;50.428;8.378;2022-08-19T03:19:35;14.38;;;12.98;;
64854;SDS011;51321;50.428;8.378;2022-08-19T03:21:58;14.40;;;12.98;;
64854;SDS011;51321;50.428;8.378;2022-08-19T03:26:43;15.35;;;13.70;;
64854;SDS011;51321;50.428;8.378;2022-08-19T03:29:06;15.25;;;13.70;;
64854;SDS011;51321;50.428;8.378;2022-08-19T03:31:31;14.55;;;13.07;;
64854;SDS011;51321;50.428;8.378;2022-08-19T03:33:53;14.43;;;12.70;;
64854;SDS011;51321;50.428;8.378;2022-08-19T03:36:17;14.10;;;12.55;;
64854;SDS011;51321;50.428;8.378;2022-08-19T03:38:41;14.18;;;12.88;;
64854;SDS011;51321;50.428;8.378;2022-08-19T03:41:11;14.77;;;13.35;;
64854;SDS011;51321;50.428;8.378;2022-08-19T03:43:42;15.05;;;13.50;;
64854;SDS011;51321;50.428;8.378;2022-08-19T03:46:07;16.00;;;14.30;;
64854;SDS011;51321;50.428;8.378;2022-08-19T03:48:31;15.82;;;14.18;;
64854;SDS011;51321;50.428;8.378;2022-08-19T03:53:16;14.70;;;13.30;;
64854;SDS011;51321;50.428;8.378;2022-08-19T03:55:39;14.70;;;13.30;;
64854;SDS011;51321;50.428;8.378;2022-08-19T03:58:01;15.05;;;13.45;;
64854;SDS011;51321;50.428;8.378;2022-08-19T04:00:23;15.07;;;13.52;;
64854;SDS011;51321;50.428;8.378;2022-08-19T04:02:44;15.38;;;13.77;;
64854;SDS011;51321;50.428;8.378;2022-08-19T04:05:06;16.35;;;14.70;;
64854;SDS011;51321;50.428;8.378;2022-08-19T04:07:29;15.68;;;14.10;;
64854;SDS011;51321;50.428;8.378;2022-08-19T04:09:52;18.48;;;15.40;;
64854;SDS011;51321;50.428;8.378;2022-08-19T04:12:14;18.23;;;16.33;;
64854;SDS011;51321;50.428;8.378;2022-08-19T04:14:36;19.20;;;16.20;;
64854;SDS011;51321;50.428;8.378;2022-08-19T04:16:58;18.17;;;14.65;;
64854;SDS011;51321;50.428;8.378;2022-08-19T04:19:21;17.55;;;15.63;;
64854;SDS011;51321;50.428;8.378;2022-08-19T04:21:44;15.43;;;13.82;;
64854;SDS011;51321;50.428;8.378;2022-08-19T04:24:07;14.82;;;13.18;;
64854;SDS011;51321;50.428;8.378;2022-08-19T04:26:33;15.27;;;13.68;;
64854;SDS011;51321;50.428;8.378;2022-08-19T04:28:57;16.83;;;14.10;;
64854;SDS011;51321;50.428;8.378;2022-08-19T04:31:20;16.08;;;14.52;;
64854;SDS011;51321;50.428;8.378;2022-08-19T04:33:46;15.73;;;13.95;;
64854;SDS011;51321;50.428;8.378;2022-08-19T04:36:08;15.18;;;13.75;;
64854;SDS011;51321;50.428;8.378;2022-08-19T04:38:37;14.55;;;13.13;;
64854;SDS011;51321;50.428;8.378;2022-08-19T04:40:59;15.00;;;12.55;;
64854;SDS011;51321;50.428;8.378;2022-08-19T04:43:42;14.40;;;12.90;;
64854;SDS011;51321;50.428;8.378;2022-08-19T04:46:09;15.30;;;13.80;;
64854;SDS011;51321;50.428;8.378;2022-08-19T04:48:33;15.68;;;14.02;;
64854;SDS011;51321;50.428;8.378;2022-08-19T04:50:56;15.27;;;13.77;;
64854;SDS011;51321;50.428;8.378;2022-08-19T04:53:19;16.13;;;14.52;;
64854;SDS011;51321;50.428;8.378;2022-08-19T04:55:41;16.33;;;14.57;;
64854;SDS011;51321;50.428;8.378;2022-08-19T04:58:03;18.55;;;14.52;;
64854;SDS011;51321;50.428;8.378;2022-08-19T05:00:26;15.73;;;14.13;;
64854;SDS011;51321;50.428;8.378;2022-08-19T05:02:48;15.15;;;13.65;;
64854;SDS011;51321;50.428;8.378;2022-08-19T05:05:10;15.93;;;13.98;;
64854;SDS011;51321;50.428;8.378;2022-08-19T05:07:32;16.55;;;14.85;;
64854;SDS011;51321;50.428;8.378;2022-08-19T05:09:54;16.42;;;14.80;;
64854;SDS011;51321;50.428;8.378;2022-08-19T05:12:16;16.27;;;14.15;;
64854;SDS011;51321;50.428;8.378;2022-08-19T05:14:39;16.15;;;14.25;;
64854;SDS011;51321;50.428;8.378;2022-08-19T05:17:02;16.65;;;14.48;;
64854;SDS011;51321;50.428;8.378;2022-08-19T05:19:24;14.20;;;12.80;;
64854;SDS011;51321;50.428;8.378;2022-08-19T05:22:03;15.93;;;13.80;;
64854;SDS011;51321;50.428;8.378;2022-08-19T05:24:43;14.82;;;13.25;;
64854;SDS011;51321;50.428;8.378;2022-08-19T05:27:05;16.30;;;14.35;;
64854;SDS011;51321;50.428;8.378;2022-08-19T05:29:27;15.00;;;13.48;;
64854;SDS011;51321;50.428;8.378;2022-08-19T05:31:49;14.40;;;13.00;;
64854;SDS011;51321;50.428;8.378;2022-08-19T05:34:14;14.45;;;13.07;;
64854;SDS011;51321;50.428;8.378;2022-08-19T05:36:38;15.02;;;13.43;;
64854;SDS011;51321;50.428;8.378;2022-08-19T05:39:02;14.98;;;12.88;;
64854;SDS011;51321;50.428;8.378;2022-08-19T05:41:25;15.13;;;13.73;;
64854;SDS011;51321;50.428;8.378;2022-08-19T05:43:49;15.88;;;14.27;;
64854;SDS011;51321;50.428;8.378;2022-08-19T05:46:15;14.80;;;13.38;;
64854;SDS011;51321;50.428;8.378;2022-08-19T05:48:39;14.77;;;13.27;;
64854;SDS011;51321;50.428;8.378;2022-08-19T05:51:04;14.15;;;12.75;;
64854;SDS011;51321;50.428;8.378;2022-08-19T05:53:28;15.60;;;13.20;;
64854;SDS011;51321;50.428;8.378;2022-08-19T05:55:50;14.80;;;13.38;;
64854;SDS011;51321;50.428;8.378;2022-08-19T05:58:11;15.32;;;13.77;;
64854;SDS011;51321;50.428;8.378;2022-08-19T06:00:33;15.07;;;13.52;;
64854;SDS011;51321;50.428;8.378;2022-08-19T06:05:19;15.30;;;13.75;;
64854;SDS011;51321;50.428;8.378;2022-08-19T06:07:42;14.27;;;12.88;;
64854;SDS011;51321;50.428;8.378;2022-08-19T06:10:05;15.20;;;13.63;;
64854;SDS011;51321;50.428;8.378;2022-08-19T06:12:29;14.93;;;13.20;;
64854;SDS011;51321;50.428;8.378;2022-08-19T06:14:54;15.82;;;13.13;;
64854;SDS011;51321;50.428;8.378;2022-08-19T06:17:16;18.08;;;14.30;;
64854;SDS011;51321;50.428;8.378;2022-08-19T06:19:38;15.57;;;12.90;;
64854;SDS011;51321;50.428;8.378;2022-08-19T06:22:01;14.23;;;12.77;;
64854;SDS011;51321;50.428;8.378;2022-08-19T06:26:47;14.15;;;12.60;;
64854;SDS011;51321;50.428;8.378;2022-08-19T06:29:12;13.88;;;12.48;;
64854;SDS011;51321;50.428;8.378;2022-08-19T06:31:36;14.80;;;13.25;;
64854;SDS011;51321;50.428;8.378;2022-08-19T06:33:58;14.07;;;12.35;;
64854;SDS011;51321;50.428;8.378;2022-08-19T06:36:22;14.05;;;12.32;;
64854;SDS011;51321;50.428;8.378;2022-08-19T06:38:51;15.93;;;13.43;;
64854;SDS011;51321;50.428;8.378;2022-08-19T06:41:14;14.63;;;13.13;;
64854;SDS011;51321;50.428;8.378;2022-08-19T06:43:36;14.32;;;12.82;;
64854;SDS011;51321;50.428;8.378;2022-08-19T06:45:58;14.75;;;11.57;;
64854;SDS011;51321;50.428;8.378;2022-08-19T06:48:21;13.65;;;12.23;;
64854;SDS011;51321;50.428;8.378;2022-08-19T06:50:42;14.98;;;12.07;;
64854;SDS011;51321;50.428;8.378;2022-08-19T06:53:04;13.05;;;11.85;;
64854;SDS011;51321;50.428;8.378;2022-08-19T06:55:26;12.73;;;11.52;;
64854;SDS011;51321;50.428;8.378;2022-08-19T06:57:51;12.15;;;10.98;;
64854;SDS011;51321;50.428;8.378;2022-08-19T07:00:13;12.27;;;10.52;;
64854;SDS011;51321;50.428;8.378;2022-08-19T07:04:58;12.75;;;11.52;;
64854;SDS011;51321;50.428;8.378;2022-08-19T07:07:22;11.55;;;10.35;;
64854;SDS011;51321;50.428;8.378;2022-08-19T07:09:44;10.65;;;9.52;;
64854;SDS011;51321;50.428;8.378;2022-08-19T07:12:07;11.68;;;9.57;;
64854;SDS011;51321;50.428;8.378;2022-08-19T07:14:33;11.48;;;10.00;;
64854;SDS011;51321;50.428;8.378;2022-08-19T07:16:57;13.88;;;9.52;;
64854;SDS011;51321;50.428;8.378;2022-08-19T07:19:19;9.18;;;8.25;;
64854;SDS011;51321;50.428;8.378;2022-08-19T07:21:41;8.50;;;7.28;;
64854;SDS011;51321;50.428;8.378;2022-08-19T07:24:03;8.30;;;7.15;;
64854;SDS011;51321;50.428;8.378;2022-08-19T07:26:26;7.40;;;6.43;;
64854;SDS011;51321;50.428;8.378;2022-08-19T07:28:49;7.63;;;6.72;;
64854;SDS011;51321;50.428;8.378;2022-08-19T07:31:13;8.52;;;5.90;;
64854;SDS011;51321;50.428;8.378;2022-08-19T07:33:38;6.32;;;5.70;;
64854;SDS011;51321;50.428;8.378;2022-08-19T07:36:02;7.40;;;5.57;;
64854;SDS011;51321;50.428;8.378;2022-08-19T07:38:25;8.27;;;6.45;;
64854;SDS011;51321;50.428;8.378;2022-08-19T07:40:47;7.72;;;6.18;;
64854;SDS011;51321;50.428;8.378;2022-08-19T07:43:11;9.30;;;6.30;;
64854;SDS011;51321;50.428;8.378;2022-08-19T07:45:33;6.38;;;5.75;;
64854;SDS011;51321;50.428;8.378;2022-08-19T07:47:56;8.73;;;6.72;;
64854;SDS011;51321;50.428;8.378;2022-08-19T07:50:19;7.43;;;6.30;;
64854;SDS011;51321;50.428;8.378;2022-08-19T07:52:41;7.65;;;6.93;;
64854;SDS011;51321;50.428;8.378;2022-08-19T07:55:04;7.18;;;6.45;;
64854;SDS011;51321;50.428;8.378;2022-08-19T07:57:27;9.45;;;8.40;;
64854;SDS011;51321;50.428;8.378;2022-08-19T07:59:50;7.63;;;6.90;;
64854;SDS011;51321;50.428;8.378;2022-08-19T08:02:11;7.47;;;6.50;;
64854;SDS011;51321;50.428;8.378;2022-08-19T08:04:34;8.95;;;8.13;;
64854;SDS011;51321;50.428;8.378;2022-08-19T08:07:14;8.55;;;6.22;;
64854;SDS011;51321;50.428;8.378;2022-08-19T08:09:53;8.10;;;7.00;;
64854;SDS011;51321;50.428;8.378;2022-08-19T08:12:16;8.57;;;7.55;;
64854;SDS011;51321;50.428;8.378;2022-08-19T08:14:41;10.02;;;7.95;;
64854;SDS011;51321;50.428;8.378;2022-08-19T08:17:04;9.25;;;7.82;;
64854;SDS011;51321;50.428;8.378;2022-08-19T08:19:28;9.95;;;6.60;;
64854;SDS011;51321;50.428;8.378;2022-08-19T08:21:52;11.13;;;7.40;;
64854;SDS011;51321;50.428;8.378;2022-08-19T08:24:15;9.90;;;7.15;;
64854;SDS011;51321;50.428;8.378;2022-08-19T08:26:37;8.00;;;6.38;;
64854;SDS011;51321;50.428;8.378;2022-08-19T08:28:59;9.88;;;8.90;;
64854;SDS011;51321;50.428;8.378;2022-08-19T08:31:22;10.55;;;7.80;;
64854;SDS011;51321;50.428;8.378;2022-08-19T08:33:43;9.25;;;8.10;;
64854;SDS011;51321;50.428;8.378;2022-08-19T08:36:07;9.35;;;7.65;;
64854;SDS011;51321;50.428;8.378;2022-08-19T08:38:31;11.18;;;6.80;;
64854;SDS011;51321;50.428;8.378;2022-08-19T08:40:56;9.77;;;8.65;;
64854;SDS011;51321;50.428;8.378;2022-08-19T08:43:27;8.63;;;7.78;;
64854;SDS011;51321;50.428;8.378;2022-08-19T08:45:55;8.15;;;7.35;;
64854;SDS011;51321;50.428;8.378;2022-08-19T08:48:23;9.75;;;8.73;;
64854;SDS011;51321;50.428;8.378;2022-08-19T08:50:51;8.35;;;7.55;;
64854;SDS011;51321;50.428;8.378;2022-08-19T08:53:16;10.43;;;9.43;;
64854;SDS011;51321;50.428;8.378;2022-08-19T08:55:40;9.82;;;8.95;;
64854;SDS011;51321;50.428;8.378;2022-08-19T08:58:04;11.20;;;9.07;;
64854;SDS011;51321;50.428;8.378;2022-08-19T09:00:28;11.45;;;10.35;;
64854;SDS011;51321;50.428;8.378;2022-08-19T09:02:52;9.23;;;8.32;;
64854;SDS011;51321;50.428;8.378;2022-08-19T09:05:15;14.43;;;10.57;;
64854;SDS011;51321;50.428;8.378;2022-08-19T09:07:41;10.90;;;9.80;;
64854;SDS011;51321;50.428;8.378;2022-08-19T09:10:10;11.05;;;10.02;;
64854;SDS011;51321;50.428;8.378;2022-08-19T09:12:45;11.85;;;10.65;;
64854;SDS011;51321;50.428;8.378;2022-08-19T09:15:15;10.32;;;9.35;;
64854;SDS011;51321;50.428;8.378;2022-08-19T09:17:44;10.40;;;9.40;;
64854;SDS011;51321;50.428;8.378;2022-08-19T09:20:08;11.10;;;10.07;;
64854;SDS011;51321;50.428;8.378;2022-08-19T09:22:37;14.50;;;13.00;;
64854;SDS011;51321;50.428;8.378;2022-08-19T09:25:00;11.73;;;10.73;;
64854;SDS011;51321;50.428;8.378;2022-08-19T09:27:23;11.48;;;10.25;;
64854;SDS011;51321;50.428;8.378;2022-08-19T09:29:47;11.98;;;10.93;;
64854;SDS011;51321;50.428;8.378;2022-08-19T09:32:09;13.43;;;12.23;;
64854;SDS011;51321;50.428;8.378;2022-08-19T09:34:32;12.48;;;11.38;;
64854;SDS011;51321;50.428;8.378;2022-08-19T09:36:54;12.38;;;11.27;;
64854;SDS011;51321;50.428;8.378;2022-08-19T09:39:18;12.25;;;11.25;;
64854;SDS011;51321;50.428;8.378;2022-08-19T09:41:40;12.50;;;11.15;;
64854;SDS011;51321;50.428;8.378;2022-08-19T09:44:02;12.00;;;10.80;;
64854;SDS011;51321;50.428;8.378;2022-08-19T09:46:26;11.63;;;10.43;;
64854;SDS011;51321;50.428;8.378;2022-08-19T09:48:50;11.88;;;10.68;;
64854;SDS011;51321;50.428;8.378;2022-08-19T09:51:13;11.63;;;10.48;;
64854;SDS011;51321;50.428;8.378;2022-08-19T09:53:37;12.00;;;10.80;;
64854;SDS011;51321;50.428;8.378;2022-08-19T09:55:59;10.77;;;9.43;;
64854;SDS011;51321;50.428;8.378;2022-08-19T09:58:21;11.98;;;10.88;;
64854;SDS011;51321;50.428;8.378;2022-08-19T10:00:47;11.98;;;10.88;;
64854;SDS011;51321;50.428;8.378;2022-08-19T10:03:10;11.93;;;10.63;;
64854;SDS011;51321;50.428;8.378;2022-08-19T10:05:32;10.00;;;9.02;;
64854;SDS011;51321;50.428;8.378;2022-08-19T10:08:09;10.18;;;9.18;;
64854;SDS011;51321;50.428;8.378;2022-08-19T10:10:34;8.30;;;7.50;;
64854;SDS011;51321;50.428;8.378;2022-08-19T10:12:56;8.48;;;7.78;;
64854;SDS011;51321;50.428;8.378;2022-08-19T10:15:18;7.95;;;7.15;;
64854;SDS011;51321;50.428;8.378;2022-08-19T10:17:41;8.43;;;7.63;;
64854;SDS011;51321;50.428;8.378;2022-08-19T10:20:05;8.50;;;7.80;;
64854;SDS011;51321;50.428;8.378;2022-08-19T10:22:27;8.73;;;7.88;;
64854;SDS011;51321;50.428;8.378;2022-08-19T10:24:49;9.35;;;7.80;;
64854;SDS011;51321;50.428;8.378;2022-08-19T10:27:12;7.95;;;7.30;;
64854;SDS011;51321;50.428;8.378;2022-08-19T10:29:34;9.68;;;8.88;;
64854;SDS011;51321;50.428;8.378;2022-08-19T10:31:56;10.13;;;9.10;;
64854;SDS011;51321;50.428;8.378;2022-08-19T10:34:18;10.10;;;9.30;;
64854;SDS011;51321;50.428;8.378;2022-08-19T10:39:04;9.85;;;9.05;;
64854;SDS011;51321;50.428;8.378;2022-08-19T10:41:28;10.10;;;9.25;;
64854;SDS011;51321;50.428;8.378;2022-08-19T10:43:52;8.95;;;8.15;;
64854;SDS011;51321;50.428;8.378;2022-08-19T10:46:15;7.32;;;6.63;;
64854;SDS011;51321;50.428;8.378;2022-08-19T10:48:37;8.45;;;7.70;;
64854;SDS011;51321;50.428;8.378;2022-08-19T10:50:59;8.45;;;7.68;;
64854;SDS011;51321;50.428;8.378;2022-08-19T10:53:40;9.63;;;8.45;;
64854;SDS011;51321;50.428;8.378;2022-08-19T10:56:02;8.43;;;7.63;;
64854;SDS011;51321;50.428;8.378;2022-08-19T10:58:42;7.65;;;6.93;;
64854;SDS011;51321;50.428;8.378;2022-08-19T11:01:04;7.03;;;6.43;;
64854;SDS011;51321;50.428;8.378;2022-08-19T11:03:26;8.00;;;7.38;;
64854;SDS011;51321;50.428;8.378;2022-08-19T11:05:56;9.00;;;6.75;;
64854;SDS011;51321;50.428;8.378;2022-08-19T11:08:19;7.43;;;6.88;;
64854;SDS011;51321;50.428;8.378;2022-08-19T11:10:42;8.30;;;7.32;;
64854;SDS011;51321;50.428;8.378;2022-08-19T11:13:04;7.20;;;5.32;;
64854;SDS011;51321;50.428;8.378;2022-08-19T11:15:27;5.88;;;5.35;;
64854;SDS011;51321;50.428;8.378;2022-08-19T11:17:50;6.18;;;5.57;;
64854;SDS011;51321;50.428;8.378;2022-08-19T11:20:14;7.10;;;6.13;;
64854;SDS011;51321;50.428;8.378;2022-08-19T11:22:36;6.53;;;5.90;;
64854;SDS011;51321;50.428;8.378;2022-08-19T11:24:58;6.32;;;5.72;;
64854;SDS011;51321;50.428;8.378;2022-08-19T11:27:21;6.22;;;5.72;;
64854;SDS011;51321;50.428;8.378;2022-08-19T11:29:43;6.57;;;5.97;;
64854;SDS011;51321;50.428;8.378;2022-08-19T11:32:06;6.07;;;5.57;;
64854;SDS011;51321;50.428;8.378;2022-08-19T11:34:30;6.20;;;5.70;;
64854;SDS011;51321;50.428;8.378;2022-08-19T11:36:52;5.90;;;5.30;;
64854;SDS011;51321;50.428;8.378;2022-08-19T11:39:17;5.40;;;4.90;;
64854;SDS011;51321;50.428;8.378;2022-08-19T11:41:41;5.00;;;4.55;;
64854;SDS011;51321;50.428;8.378;2022-08-19T11:46:27;4.50;;;4.10;;
64854;SDS011;51321;50.428;8.378;2022-08-19T11:48:50;5.32;;;4.82;;
64854;SDS011;51321;50.428;8.378;2022-08-19T11:51:13;6.07;;;4.95;;
64854;SDS011;51321;50.428;8.378;2022-08-19T11:53:37;4.93;;;4.53;;
64854;SDS011;51321;50.428;8.378;2022-08-19T11:55:59;4.10;;;3.70;;
64854;SDS011;51321;50.428;8.378;2022-08-19T11:58:22;4.88;;;4.43;;
64854;SDS011;51321;50.428;8.378;2022-08-19T12:00:46;5.32;;;4.47;;
64854;SDS011;51321;50.428;8.378;2022-08-19T12:03:08;6.75;;;4.85;;
64854;SDS011;51321;50.428;8.378;2022-08-19T12:07:51;7.93;;;4.07;;
64854;SDS011;51321;50.428;8.378;2022-08-19T12:10:14;4.55;;;4.15;;
64854;SDS011;51321;50.428;8.378;2022-08-19T12:12:36;4.97;;;4.32;;
64854;SDS011;51321;50.428;8.378;2022-08-19T12:15:00;4.50;;;3.63;;
64854;SDS011;51321;50.428;8.378;2022-08-19T12:17:24;4.03;;;3.20;;
64854;SDS011;51321;50.428;8.378;2022-08-19T12:19:46;3.33;;;3.03;;
64854;SDS011;51321;50.428;8.378;2022-08-19T12:24:30;5.57;;;2.72;;
64854;SDS011;51321;50.428;8.378;2022-08-19T12:26:52;3.38;;;2.90;;
64854;SDS011;51321;50.428;8.378;2022-08-19T12:29:15;2.83;;;2.42;;
64854;SDS011;51321;50.428;8.378;2022-08-19T12:31:37;2.80;;;2.13;;
64854;SDS011;51321;50.428;8.378;2022-08-19T12:34:01;3.88;;;2.47;;
64854;SDS011;51321;50.428;8.378;2022-08-19T12:36:24;3.30;;;2.15;;
64854;SDS011;51321;50.428;8.378;2022-08-19T12:38:46;4.95;;;2.38;;
64854;SDS011;51321;50.428;8.378;2022-08-19T12:41:09;4.57;;;2.28;;
64854;SDS011;51321;50.428;8.378;2022-08-19T12:43:33;2.25;;;2.05;;
64854;SDS011;51321;50.428;8.378;2022-08-19T12:45:55;2.50;;;2.30;;
64854;SDS011;51321;50.428;8.378;2022-08-19T12:50:41;3.88;;;2.25;;
64854;SDS011;51321;50.428;8.378;2022-08-19T12:53:04;2.88;;;2.10;;
64854;SDS011;51321;50.428;8.378;2022-08-19T12:57:49;2.95;;;2.10;;
64854;SDS011;51321;50.428;8.378;2022-08-19T13:00:12;4.00;;;2.70;;
64854;SDS011;51321;50.428;8.378;2022-08-19T13:02:37;2.60;;;2.40;;
64854;SDS011;51321;50.428;8.378;2022-08-19T13:04:59;3.78;;;2.20;;
64854;SDS011;51321;50.428;8.378;2022-08-19T13:07:22;5.15;;;2.13;;
64854;SDS011;51321;50.428;8.378;2022-08-19T13:09:44;2.97;;;2.25;;
64854;SDS011;51321;50.428;8.378;2022-08-19T13:14:33;3.05;;;2.20;;
64854;SDS011;51321;50.428;8.378;2022-08-19T13:16:55;2.33;;;2.13;;
64854;SDS011;51321;50.428;8.378;2022-08-19T13:21:41;14.88;;;3.05;;
64854;SDS011;51321;50.428;8.378;2022-08-19T13:26:26;4.82;;;2.40;;
64854;SDS011;51321;50.428;8.378;2022-08-19T13:31:28;3.67;;;2.58;;
64854;SDS011;51321;50.428;8.378;2022-08-19T13:34:09;2.63;;;1.90;;
64854;SDS011;51321;50.428;8.378;2022-08-19T13:36:31;5.88;;;2.25;;
64854;SDS011;51321;50.428;8.378;2022-08-19T13:38:53;5.90;;;1.75;;
64854;SDS011;51321;50.428;8.378;2022-08-19T13:41:18;5.07;;;2.17;;
64854;SDS011;51321;50.428;8.378;2022-08-19T13:43:39;2.83;;;1.92;;
64854;SDS011;51321;50.428;8.378;2022-08-19T13:48:29;3.22;;;2.05;;
64854;SDS011;51321;50.428;8.378;2022-08-19T13:50:51;2.35;;;1.75;;
64854;SDS011;51321;50.428;8.378;2022-08-19T13:53:14;3.17;;;1.60;;
64854;SDS011;51321;50.428;8.378;2022-08-19T13:55:37;3.05;;;2.42;;
64854;SDS011;51321;50.428;8.378;2022-08-19T13:58:01;2.38;;;2.08;;
64854;SDS011;51321;50.428;8.378;2022-08-19T14:00:24;2.35;;;1.90;;
64854;SDS011;51321;50.428;8.378;2022-08-19T14:02:47;3.45;;;2.22;;
64854;SDS011;51321;50.428;8.378;2022-08-19T14:05:13;4.40;;;2.05;;
64854;SDS011;51321;50.428;8.378;2022-08-19T14:07:37;2.35;;;1.90;;
64854;SDS011;51321;50.428;8.378;2022-08-19T14:12:21;3.47;;;1.50;;
64854;SDS011;51321;50.428;8.378;2022-08-19T14:14:44;2.58;;;2.00;;
64854;SDS011;51321;50.428;8.378;2022-08-19T14:17:06;2.30;;;2.10;;
64854;SDS011;51321;50.428;8.378;2022-08-19T14:19:29;2.38;;;1.80;;
64854;SDS011;51321;50.428;8.378;2022-08-19T14:21:52;4.78;;;1.85;;
64854;SDS011;51321;50.428;8.378;2022-08-19T14:24:14;3.22;;;1.77;;
64854;SDS011;51321;50.428;8.378;2022-08-19T14:26:36;2.63;;;2.42;;
64854;SDS011;51321;50.428;8.378;2022-08-19T14:28:58;3.83;;;1.90;;
64854;SDS011;51321;50.428;8.378;2022-08-19T14:31:22;2.80;;;2.15;;
64854;SDS011;51321;50.428;8.378;2022-08-19T14:33:45;3.95;;;1.67;;
64854;SDS011;51321;50.428;8.378;2022-08-19T14:36:07;3.47;;;2.00;;
64854;SDS011;51321;50.428;8.378;2022-08-19T14:38:29;5.80;;;2.38;;
64854;SDS011;51321;50.428;8.378;2022-08-19T14:40:52;2.08;;;1.80;;
64854;SDS011;51321;50.428;8.378;2022-08-19T14:45:38;2.30;;;1.80;;
64854;SDS011;51321;50.428;8.378;2022-08-19T14:48:02;4.63;;;1.88;;
64854;SDS011;51321;50.428;8.378;2022-08-19T14:50:24;4.85;;;1.50;;
64854;SDS011;51321;50.428;8.378;2022-08-19T14:52:46;3.88;;;1.85;;
64854;SDS011;51321;50.428;8.378;2022-08-19T14:55:09;3.25;;;1.77;;